ZM-0003 weather

Luangwa Airport
Luangwa, Lusaka Province, Zambia

Public forecast

Using degrees Celsius for public forecast. Weather courtesy of forecast.io.

METAR (pilot weather report)

Report is more than 6 hours old.

Closest report is Kariba International Airport, 103.0 nm (190.7 km) WSW. Retrieved 2019/08/22 12:00 UTC (14 hours ago):

FVKB 221200Z 28005KT CAVOK 25/11 Q1022

TAF (pilot weather forecast)

Forecast is more than 6 hours old.

Closest forecast is Jeki Airport, 45.8 nm (84.9 km) W. Retrieved 2019/08/22 18:00 UTC (8 hours ago):

TAF FLJK 221600Z 2218/2324 14005KT CAVOK BECMG 2304/2306 08010KT 9000 HZ NSC BECMG 2306/2308 SCT020 BECMG 2311/2313 11010KT NSC